sensor_id;sensor_type;location;lat;lon;timestamp;P1;durP1;ratioP1;P2;durP2;ratioP2
16320;SDS011;8269;50.990;4.494;2023-06-10T00:01:50;11.68;;;9.38;;
16320;SDS011;8269;50.990;4.494;2023-06-10T00:04:20;9.98;;;9.02;;
16320;SDS011;8269;50.990;4.494;2023-06-10T00:06:47;10.13;;;9.10;;
16320;SDS011;8269;50.990;4.494;2023-06-10T00:09:14;11.98;;;9.60;;
16320;SDS011;8269;50.990;4.494;2023-06-10T00:11:41;11.68;;;9.55;;
16320;SDS011;8269;50.990;4.494;2023-06-10T00:14:07;11.25;;;9.45;;
16320;SDS011;8269;50.990;4.494;2023-06-10T00:16:33;10.45;;;9.30;;
16320;SDS011;8269;50.990;4.494;2023-06-10T00:19:01;11.15;;;9.20;;
16320;SDS011;8269;50.990;4.494;2023-06-10T00:21:28;11.05;;;9.70;;
16320;SDS011;8269;50.990;4.494;2023-06-10T00:23:55;10.70;;;9.52;;
16320;SDS011;8269;50.990;4.494;2023-06-10T00:26:21;12.13;;;9.73;;
16320;SDS011;8269;50.990;4.494;2023-06-10T00:28:47;10.68;;;9.68;;
16320;SDS011;8269;50.990;4.494;2023-06-10T00:31:13;10.40;;;9.30;;
16320;SDS011;8269;50.990;4.494;2023-06-10T00:33:39;11.40;;;9.48;;
16320;SDS011;8269;50.990;4.494;2023-06-10T00:36:06;11.00;;;9.35;;
16320;SDS011;8269;50.990;4.494;2023-06-10T00:38:32;11.48;;;9.35;;
16320;SDS011;8269;50.990;4.494;2023-06-10T00:40:58;10.02;;;9.00;;
16320;SDS011;8269;50.990;4.494;2023-06-10T00:43:24;11.63;;;10.30;;
16320;SDS011;8269;50.990;4.494;2023-06-10T00:45:51;11.10;;;9.88;;
16320;SDS011;8269;50.990;4.494;2023-06-10T00:48:17;11.05;;;9.73;;
16320;SDS011;8269;50.990;4.494;2023-06-10T00:50:44;10.85;;;9.73;;
16320;SDS011;8269;50.990;4.494;2023-06-10T00:53:11;10.48;;;9.32;;
16320;SDS011;8269;50.990;4.494;2023-06-10T00:55:37;11.07;;;9.68;;
16320;SDS011;8269;50.990;4.494;2023-06-10T00:58:03;10.60;;;9.35;;
16320;SDS011;8269;50.990;4.494;2023-06-10T01:00:30;11.73;;;9.48;;
16320;SDS011;8269;50.990;4.494;2023-06-10T01:02:56;10.70;;;9.65;;
16320;SDS011;8269;50.990;4.494;2023-06-10T01:05:23;11.70;;;10.60;;
16320;SDS011;8269;50.990;4.494;2023-06-10T01:10:38;13.23;;;9.95;;
16320;SDS011;8269;50.990;4.494;2023-06-10T01:13:07;14.55;;;10.27;;
16320;SDS011;8269;50.990;4.494;2023-06-10T01:15:37;10.95;;;9.85;;
16320;SDS011;8269;50.990;4.494;2023-06-10T01:18:04;11.13;;;9.95;;
16320;SDS011;8269;50.990;4.494;2023-06-10T01:20:33;11.45;;;10.35;;
16320;SDS011;8269;50.990;4.494;2023-06-10T01:23:02;11.82;;;10.63;;
16320;SDS011;8269;50.990;4.494;2023-06-10T01:25:28;12.40;;;10.73;;
16320;SDS011;8269;50.990;4.494;2023-06-10T01:30:27;12.20;;;10.95;;
16320;SDS011;8269;50.990;4.494;2023-06-10T01:32:55;13.82;;;10.57;;
16320;SDS011;8269;50.990;4.494;2023-06-10T01:35:24;11.65;;;10.50;;
16320;SDS011;8269;50.990;4.494;2023-06-10T01:37:51;12.55;;;11.15;;
16320;SDS011;8269;50.990;4.494;2023-06-10T01:40:18;11.35;;;10.25;;
16320;SDS011;8269;50.990;4.494;2023-06-10T01:42:45;13.07;;;10.50;;
16320;SDS011;8269;50.990;4.494;2023-06-10T01:45:11;11.60;;;10.32;;
16320;SDS011;8269;50.990;4.494;2023-06-10T01:47:37;11.65;;;10.55;;
16320;SDS011;8269;50.990;4.494;2023-06-10T01:50:03;11.68;;;10.55;;
16320;SDS011;8269;50.990;4.494;2023-06-10T01:52:29;12.02;;;10.88;;
16320;SDS011;8269;50.990;4.494;2023-06-10T01:54:55;11.75;;;10.55;;
16320;SDS011;8269;50.990;4.494;2023-06-10T01:57:21;12.15;;;10.85;;
16320;SDS011;8269;50.990;4.494;2023-06-10T01:59:47;12.20;;;11.00;;
16320;SDS011;8269;50.990;4.494;2023-06-10T02:02:13;14.85;;;11.98;;
16320;SDS011;8269;50.990;4.494;2023-06-10T02:04:40;12.60;;;10.63;;
16320;SDS011;8269;50.990;4.494;2023-06-10T02:07:06;12.35;;;11.15;;
16320;SDS011;8269;50.990;4.494;2023-06-10T02:09:32;14.63;;;11.93;;
16320;SDS011;8269;50.990;4.494;2023-06-10T02:12:00;12.80;;;11.20;;
16320;SDS011;8269;50.990;4.494;2023-06-10T02:14:26;12.00;;;10.75;;
16320;SDS011;8269;50.990;4.494;2023-06-10T02:16:53;13.07;;;11.60;;
16320;SDS011;8269;50.990;4.494;2023-06-10T02:19:21;13.15;;;11.85;;
16320;SDS011;8269;50.990;4.494;2023-06-10T02:21:48;12.75;;;11.48;;
16320;SDS011;8269;50.990;4.494;2023-06-10T02:24:14;13.02;;;11.73;;
16320;SDS011;8269;50.990;4.494;2023-06-10T02:26:40;16.05;;;11.98;;
16320;SDS011;8269;50.990;4.494;2023-06-10T02:29:06;13.30;;;11.65;;
16320;SDS011;8269;50.990;4.494;2023-06-10T02:31:33;12.82;;;11.63;;
16320;SDS011;8269;50.990;4.494;2023-06-10T02:34:00;13.10;;;11.80;;
16320;SDS011;8269;50.990;4.494;2023-06-10T02:36:27;13.43;;;11.95;;
16320;SDS011;8269;50.990;4.494;2023-06-10T02:38:53;16.10;;;11.32;;
16320;SDS011;8269;50.990;4.494;2023-06-10T02:41:20;12.75;;;11.52;;
16320;SDS011;8269;50.990;4.494;2023-06-10T02:43:50;14.95;;;12.98;;
16320;SDS011;8269;50.990;4.494;2023-06-10T02:46:16;13.07;;;11.85;;
16320;SDS011;8269;50.990;4.494;2023-06-10T02:48:42;13.35;;;11.95;;
16320;SDS011;8269;50.990;4.494;2023-06-10T02:51:11;12.77;;;11.50;;
16320;SDS011;8269;50.990;4.494;2023-06-10T02:53:37;15.43;;;12.23;;
16320;SDS011;8269;50.990;4.494;2023-06-10T02:56:03;14.40;;;12.32;;
16320;SDS011;8269;50.990;4.494;2023-06-10T02:58:29;14.63;;;12.30;;
16320;SDS011;8269;50.990;4.494;2023-06-10T03:00:56;13.98;;;12.43;;
16320;SDS011;8269;50.990;4.494;2023-06-10T03:03:23;14.32;;;12.38;;
16320;SDS011;8269;50.990;4.494;2023-06-10T03:05:52;14.00;;;12.52;;
16320;SDS011;8269;50.990;4.494;2023-06-10T03:08:18;17.13;;;12.88;;
16320;SDS011;8269;50.990;4.494;2023-06-10T03:10:44;15.82;;;12.48;;
16320;SDS011;8269;50.990;4.494;2023-06-10T03:13:10;13.75;;;12.45;;
16320;SDS011;8269;50.990;4.494;2023-06-10T03:15:36;14.23;;;12.90;;
16320;SDS011;8269;50.990;4.494;2023-06-10T03:18:02;14.00;;;12.60;;
16320;SDS011;8269;50.990;4.494;2023-06-10T03:20:28;14.50;;;12.35;;
16320;SDS011;8269;50.990;4.494;2023-06-10T03:22:54;15.07;;;12.65;;
16320;SDS011;8269;50.990;4.494;2023-06-10T03:25:21;13.90;;;12.60;;
16320;SDS011;8269;50.990;4.494;2023-06-10T03:27:47;15.70;;;13.30;;
16320;SDS011;8269;50.990;4.494;2023-06-10T03:30:13;16.13;;;12.77;;
16320;SDS011;8269;50.990;4.494;2023-06-10T03:32:39;15.13;;;13.10;;
16320;SDS011;8269;50.990;4.494;2023-06-10T03:35:06;14.32;;;12.88;;
16320;SDS011;8269;50.990;4.494;2023-06-10T03:37:32;14.57;;;13.07;;
16320;SDS011;8269;50.990;4.494;2023-06-10T03:39:58;14.27;;;12.75;;
16320;SDS011;8269;50.990;4.494;2023-06-10T03:42:24;14.77;;;13.23;;
16320;SDS011;8269;50.990;4.494;2023-06-10T03:44:50;14.93;;;13.43;;
16320;SDS011;8269;50.990;4.494;2023-06-10T03:47:17;14.10;;;12.70;;
16320;SDS011;8269;50.990;4.494;2023-06-10T03:49:43;14.60;;;13.20;;
16320;SDS011;8269;50.990;4.494;2023-06-10T03:52:09;15.07;;;13.52;;
16320;SDS011;8269;50.990;4.494;2023-06-10T03:54:35;15.10;;;13.52;;
16320;SDS011;8269;50.990;4.494;2023-06-10T03:57:01;15.60;;;13.80;;
16320;SDS011;8269;50.990;4.494;2023-06-10T03:59:28;14.55;;;13.15;;
16320;SDS011;8269;50.990;4.494;2023-06-10T04:01:54;14.75;;;13.35;;
16320;SDS011;8269;50.990;4.494;2023-06-10T04:04:20;14.20;;;12.70;;
16320;SDS011;8269;50.990;4.494;2023-06-10T04:06:46;14.85;;;13.35;;
16320;SDS011;8269;50.990;4.494;2023-06-10T04:09:13;14.70;;;13.25;;
16320;SDS011;8269;50.990;4.494;2023-06-10T04:11:40;14.05;;;12.75;;
16320;SDS011;8269;50.990;4.494;2023-06-10T04:14:07;15.20;;;13.75;;
16320;SDS011;8269;50.990;4.494;2023-06-10T04:16:33;15.52;;;12.90;;
16320;SDS011;8269;50.990;4.494;2023-06-10T04:18:59;14.43;;;13.00;;
16320;SDS011;8269;50.990;4.494;2023-06-10T04:21:26;13.90;;;12.45;;
16320;SDS011;8269;50.990;4.494;2023-06-10T04:23:52;13.50;;;12.20;;
16320;SDS011;8269;50.990;4.494;2023-06-10T04:26:18;14.10;;;12.63;;
16320;SDS011;8269;50.990;4.494;2023-06-10T04:28:44;14.40;;;12.90;;
16320;SDS011;8269;50.990;4.494;2023-06-10T04:31:11;14.02;;;12.55;;
16320;SDS011;8269;50.990;4.494;2023-06-10T04:33:38;14.43;;;12.82;;
16320;SDS011;8269;50.990;4.494;2023-06-10T04:36:04;13.48;;;12.23;;
16320;SDS011;8269;50.990;4.494;2023-06-10T04:38:31;13.63;;;12.02;;
16320;SDS011;8269;50.990;4.494;2023-06-10T04:40:58;14.18;;;12.75;;
16320;SDS011;8269;50.990;4.494;2023-06-10T04:43:24;13.48;;;12.07;;
16320;SDS011;8269;50.990;4.494;2023-06-10T04:45:50;13.50;;;12.15;;
16320;SDS011;8269;50.990;4.494;2023-06-10T04:48:16;13.75;;;12.30;;
16320;SDS011;8269;50.990;4.494;2023-06-10T04:50:42;17.15;;;12.95;;
16320;SDS011;8269;50.990;4.494;2023-06-10T04:53:08;13.25;;;12.00;;
16320;SDS011;8269;50.990;4.494;2023-06-10T04:55:34;13.50;;;12.10;;
16320;SDS011;8269;50.990;4.494;2023-06-10T04:58:01;13.90;;;11.85;;
16320;SDS011;8269;50.990;4.494;2023-06-10T05:00:27;14.27;;;12.25;;
16320;SDS011;8269;50.990;4.494;2023-06-10T05:02:53;13.60;;;12.30;;
16320;SDS011;8269;50.990;4.494;2023-06-10T05:05:21;17.48;;;13.50;;
16320;SDS011;8269;50.990;4.494;2023-06-10T05:07:47;15.48;;;12.70;;
16320;SDS011;8269;50.990;4.494;2023-06-10T05:10:13;14.05;;;12.68;;
16320;SDS011;8269;50.990;4.494;2023-06-10T05:12:39;15.23;;;13.40;;
16320;SDS011;8269;50.990;4.494;2023-06-10T05:15:06;14.07;;;12.38;;
16320;SDS011;8269;50.990;4.494;2023-06-10T05:17:32;13.50;;;12.10;;
16320;SDS011;8269;50.990;4.494;2023-06-10T05:19:59;13.70;;;12.30;;
16320;SDS011;8269;50.990;4.494;2023-06-10T05:22:26;14.98;;;12.80;;
16320;SDS011;8269;50.990;4.494;2023-06-10T05:24:52;13.93;;;12.27;;
16320;SDS011;8269;50.990;4.494;2023-06-10T05:27:18;14.43;;;13.13;;
16320;SDS011;8269;50.990;4.494;2023-06-10T05:29:44;15.35;;;12.32;;
16320;SDS011;8269;50.990;4.494;2023-06-10T05:32:11;13.82;;;12.25;;
16320;SDS011;8269;50.990;4.494;2023-06-10T05:34:37;14.27;;;12.55;;
16320;SDS011;8269;50.990;4.494;2023-06-10T05:37:03;13.43;;;12.02;;
16320;SDS011;8269;50.990;4.494;2023-06-10T05:39:30;14.68;;;12.35;;
16320;SDS011;8269;50.990;4.494;2023-06-10T05:41:56;13.10;;;11.90;;
16320;SDS011;8269;50.990;4.494;2023-06-10T05:44:24;13.45;;;12.10;;
16320;SDS011;8269;50.990;4.494;2023-06-10T05:46:50;13.02;;;11.57;;
16320;SDS011;8269;50.990;4.494;2023-06-10T05:49:16;14.00;;;12.60;;
16320;SDS011;8269;50.990;4.494;2023-06-10T05:51:42;13.65;;;12.43;;
16320;SDS011;8269;50.990;4.494;2023-06-10T05:54:08;13.18;;;11.98;;
16320;SDS011;8269;50.990;4.494;2023-06-10T05:56:35;13.32;;;12.07;;
16320;SDS011;8269;50.990;4.494;2023-06-10T05:59:01;13.77;;;12.27;;
16320;SDS011;8269;50.990;4.494;2023-06-10T06:01:27;13.77;;;12.38;;
16320;SDS011;8269;50.990;4.494;2023-06-10T06:03:53;13.70;;;12.48;;
16320;SDS011;8269;50.990;4.494;2023-06-10T06:06:19;12.73;;;11.52;;
16320;SDS011;8269;50.990;4.494;2023-06-10T06:08:45;13.40;;;11.43;;
16320;SDS011;8269;50.990;4.494;2023-06-10T06:11:11;13.73;;;12.05;;
16320;SDS011;8269;50.990;4.494;2023-06-10T06:13:38;14.30;;;12.48;;
16320;SDS011;8269;50.990;4.494;2023-06-10T06:16:05;11.93;;;10.85;;
16320;SDS011;8269;50.990;4.494;2023-06-10T06:18:31;13.48;;;11.68;;
16320;SDS011;8269;50.990;4.494;2023-06-10T06:20:57;13.80;;;12.02;;
16320;SDS011;8269;50.990;4.494;2023-06-10T06:23:23;13.98;;;12.05;;
16320;SDS011;8269;50.990;4.494;2023-06-10T06:25:49;14.75;;;11.82;;
16320;SDS011;8269;50.990;4.494;2023-06-10T06:28:15;13.43;;;12.02;;
16320;SDS011;8269;50.990;4.494;2023-06-10T06:30:41;14.20;;;11.90;;
16320;SDS011;8269;50.990;4.494;2023-06-10T06:33:07;12.90;;;11.70;;
16320;SDS011;8269;50.990;4.494;2023-06-10T06:35:33;14.52;;;11.50;;
16320;SDS011;8269;50.990;4.494;2023-06-10T06:37:59;12.80;;;11.55;;
16320;SDS011;8269;50.990;4.494;2023-06-10T06:40:25;14.18;;;10.68;;
16320;SDS011;8269;50.990;4.494;2023-06-10T06:42:52;14.25;;;11.30;;
16320;SDS011;8269;50.990;4.494;2023-06-10T06:45:18;12.05;;;10.68;;
16320;SDS011;8269;50.990;4.494;2023-06-10T06:47:44;13.82;;;11.32;;
16320;SDS011;8269;50.990;4.494;2023-06-10T06:50:10;13.25;;;11.30;;
16320;SDS011;8269;50.990;4.494;2023-06-10T06:52:36;11.85;;;10.63;;
16320;SDS011;8269;50.990;4.494;2023-06-10T06:55:02;11.75;;;10.52;;
16320;SDS011;8269;50.990;4.494;2023-06-10T06:57:29;11.93;;;10.68;;
16320;SDS011;8269;50.990;4.494;2023-06-10T06:59:55;12.65;;;11.35;;
16320;SDS011;8269;50.990;4.494;2023-06-10T07:02:22;12.43;;;11.20;;
16320;SDS011;8269;50.990;4.494;2023-06-10T07:04:48;11.70;;;10.57;;
16320;SDS011;8269;50.990;4.494;2023-06-10T07:07:14;12.05;;;10.85;;
16320;SDS011;8269;50.990;4.494;2023-06-10T07:09:41;12.18;;;10.65;;
16320;SDS011;8269;50.990;4.494;2023-06-10T07:12:08;11.43;;;9.63;;
16320;SDS011;8269;50.990;4.494;2023-06-10T07:14:34;11.35;;;10.13;;
16320;SDS011;8269;50.990;4.494;2023-06-10T07:17:00;12.40;;;10.15;;
16320;SDS011;8269;50.990;4.494;2023-06-10T07:19:26;11.07;;;9.93;;
16320;SDS011;8269;50.990;4.494;2023-06-10T07:21:52;11.65;;;10.20;;
16320;SDS011;8269;50.990;4.494;2023-06-10T07:24:18;10.93;;;9.80;;
16320;SDS011;8269;50.990;4.494;2023-06-10T07:26:45;11.93;;;9.75;;
16320;SDS011;8269;50.990;4.494;2023-06-10T07:29:11;10.63;;;9.50;;
16320;SDS011;8269;50.990;4.494;2023-06-10T07:31:37;11.57;;;9.20;;
16320;SDS011;8269;50.990;4.494;2023-06-10T07:34:03;11.18;;;9.40;;
16320;SDS011;8269;50.990;4.494;2023-06-10T07:36:29;10.75;;;9.35;;
16320;SDS011;8269;50.990;4.494;2023-06-10T07:38:55;10.50;;;9.30;;
16320;SDS011;8269;50.990;4.494;2023-06-10T07:41:22;12.38;;;10.00;;
16320;SDS011;8269;50.990;4.494;2023-06-10T07:43:50;11.25;;;9.38;;
16320;SDS011;8269;50.990;4.494;2023-06-10T07:46:19;9.82;;;8.82;;
16320;SDS011;8269;50.990;4.494;2023-06-10T07:48:46;9.82;;;8.98;;
16320;SDS011;8269;50.990;4.494;2023-06-10T07:51:12;11.50;;;9.20;;
16320;SDS011;8269;50.990;4.494;2023-06-10T07:53:38;10.63;;;9.07;;
16320;SDS011;8269;50.990;4.494;2023-06-10T07:56:03;9.80;;;8.80;;
16320;SDS011;8269;50.990;4.494;2023-06-10T07:58:29;9.65;;;8.65;;
16320;SDS011;8269;50.990;4.494;2023-06-10T08:00:55;11.60;;;8.20;;
16320;SDS011;8269;50.990;4.494;2023-06-10T08:03:21;9.32;;;8.43;;
16320;SDS011;8269;50.990;4.494;2023-06-10T08:05:47;10.00;;;8.95;;
16320;SDS011;8269;50.990;4.494;2023-06-10T08:08:13;10.18;;;9.07;;
16320;SDS011;8269;50.990;4.494;2023-06-10T08:10:38;10.82;;;8.52;;
16320;SDS011;8269;50.990;4.494;2023-06-10T08:13:04;10.20;;;8.75;;
16320;SDS011;8269;50.990;4.494;2023-06-10T08:15:30;11.35;;;8.90;;
16320;SDS011;8269;50.990;4.494;2023-06-10T08:17:56;20.50;;;9.93;;
16320;SDS011;8269;50.990;4.494;2023-06-10T08:20:21;10.50;;;8.35;;
16320;SDS011;8269;50.990;4.494;2023-06-10T08:22:47;11.30;;;8.93;;
16320;SDS011;8269;50.990;4.494;2023-06-10T08:25:13;10.55;;;8.35;;
16320;SDS011;8269;50.990;4.494;2023-06-10T08:27:38;9.13;;;8.18;;
16320;SDS011;8269;50.990;4.494;2023-06-10T08:30:04;9.32;;;8.43;;
16320;SDS011;8269;50.990;4.494;2023-06-10T08:32:30;10.60;;;7.32;;
16320;SDS011;8269;50.990;4.494;2023-06-10T08:34:56;9.00;;;7.85;;
16320;SDS011;8269;50.990;4.494;2023-06-10T08:37:22;10.30;;;8.30;;
16320;SDS011;8269;50.990;4.494;2023-06-10T08:39:47;9.30;;;7.50;;
16320;SDS011;8269;50.990;4.494;2023-06-10T08:44:48;8.88;;;7.35;;
16320;SDS011;8269;50.990;4.494;2023-06-10T08:47:17;10.80;;;7.60;;
16320;SDS011;8269;50.990;4.494;2023-06-10T08:49:45;8.90;;;8.00;;
16320;SDS011;8269;50.990;4.494;2023-06-10T08:52:15;9.05;;;7.57;;
16320;SDS011;8269;50.990;4.494;2023-06-10T08:54:56;8.05;;;7.25;;
16320;SDS011;8269;50.990;4.494;2023-06-10T08:57:24;8.55;;;7.15;;
16320;SDS011;8269;50.990;4.494;2023-06-10T08:59:52;8.90;;;7.00;;
16320;SDS011;8269;50.990;4.494;2023-06-10T09:02:20;8.70;;;6.88;;
16320;SDS011;8269;50.990;4.494;2023-06-10T09:04:46;8.52;;;6.90;;
16320;SDS011;8269;50.990;4.494;2023-06-10T09:07:13;7.82;;;7.03;;
16320;SDS011;8269;50.990;4.494;2023-06-10T09:09:40;7.53;;;6.72;;
16320;SDS011;8269;50.990;4.494;2023-06-10T09:12:08;7.18;;;5.80;;
16320;SDS011;8269;50.990;4.494;2023-06-10T09:14:34;7.50;;;6.03;;
16320;SDS011;8269;50.990;4.494;2023-06-10T09:17:00;7.05;;;6.13;;
16320;SDS011;8269;50.990;4.494;2023-06-10T09:19:27;7.22;;;6.22;;
16320;SDS011;8269;50.990;4.494;2023-06-10T09:21:54;7.97;;;6.38;;
16320;SDS011;8269;50.990;4.494;2023-06-10T09:24:21;7.43;;;6.40;;
16320;SDS011;8269;50.990;4.494;2023-06-10T09:26:49;9.27;;;6.25;;
16320;SDS011;8269;50.990;4.494;2023-06-10T09:29:16;6.35;;;5.75;;
16320;SDS011;8269;50.990;4.494;2023-06-10T09:31:42;7.38;;;6.63;;
16320;SDS011;8269;50.990;4.494;2023-06-10T09:34:11;7.03;;;6.35;;
16320;SDS011;8269;50.990;4.494;2023-06-10T09:36:38;7.07;;;5.82;;
16320;SDS011;8269;50.990;4.494;2023-06-10T09:39:05;7.60;;;6.43;;
16320;SDS011;8269;50.990;4.494;2023-06-10T09:41:40;10.25;;;7.30;;
16320;SDS011;8269;50.990;4.494;2023-06-10T09:44:13;7.47;;;6.70;;
16320;SDS011;8269;50.990;4.494;2023-06-10T09:46:39;7.85;;;6.75;;
16320;SDS011;8269;50.990;4.494;2023-06-10T09:49:05;9.77;;;7.57;;
16320;SDS011;8269;50.990;4.494;2023-06-10T09:51:31;9.27;;;7.07;;
16320;SDS011;8269;50.990;4.494;2023-06-10T09:53:57;7.85;;;7.15;;
16320;SDS011;8269;50.990;4.494;2023-06-10T09:56:34;10.55;;;8.38;;
16320;SDS011;8269;50.990;4.494;2023-06-10T09:59:00;10.38;;;7.47;;
16320;SDS011;8269;50.990;4.494;2023-06-10T10:01:26;9.18;;;7.80;;
16320;SDS011;8269;50.990;4.494;2023-06-10T10:03:52;10.30;;;8.57;;
16320;SDS011;8269;50.990;4.494;2023-06-10T10:06:19;9.05;;;8.10;;
16320;SDS011;8269;50.990;4.494;2023-06-10T10:08:46;11.32;;;7.65;;
16320;SDS011;8269;50.990;4.494;2023-06-10T10:11:13;8.90;;;7.95;;
16320;SDS011;8269;50.990;4.494;2023-06-10T10:13:40;12.35;;;8.50;;
16320;SDS011;8269;50.990;4.494;2023-06-10T10:16:11;9.00;;;8.15;;
16320;SDS011;8269;50.990;4.494;2023-06-10T10:18:45;8.52;;;7.60;;
16320;SDS011;8269;50.990;4.494;2023-06-10T10:21:13;9.10;;;8.20;;
16320;SDS011;8269;50.990;4.494;2023-06-10T10:23:51;11.50;;;8.40;;
16320;SDS011;8269;50.990;4.494;2023-06-10T10:26:18;9.45;;;8.32;;
16320;SDS011;8269;50.990;4.494;2023-06-10T10:28:48;9.82;;;8.20;;
16320;SDS011;8269;50.990;4.494;2023-06-10T10:31:18;9.20;;;7.70;;
16320;SDS011;8269;50.990;4.494;2023-06-10T10:36:10;8.77;;;7.75;;
16320;SDS011;8269;50.990;4.494;2023-06-10T10:38:37;10.52;;;7.88;;
16320;SDS011;8269;50.990;4.494;2023-06-10T10:41:03;9.25;;;7.07;;
16320;SDS011;8269;50.990;4.494;2023-06-10T10:43:30;8.85;;;7.85;;
16320;SDS011;8269;50.990;4.494;2023-06-10T10:45:59;10.88;;;7.50;;
16320;SDS011;8269;50.990;4.494;2023-06-10T10:48:35;9.00;;;7.25;;
16320;SDS011;8269;50.990;4.494;2023-06-10T10:51:02;11.05;;;7.90;;
16320;SDS011;8269;50.990;4.494;2023-06-10T10:53:29;13.25;;;8.20;;
16320;SDS011;8269;50.990;4.494;2023-06-10T10:56:09;8.18;;;7.38;;
16320;SDS011;8269;50.990;4.494;2023-06-10T10:58:38;9.60;;;8.50;;
16320;SDS011;8269;50.990;4.494;2023-06-10T11:01:14;8.35;;;7.20;;
16320;SDS011;8269;50.990;4.494;2023-06-10T11:03:43;8.75;;;7.85;;
16320;SDS011;8269;50.990;4.494;2023-06-10T11:06:12;12.32;;;7.68;;
16320;SDS011;8269;50.990;4.494;2023-06-10T11:11:18;11.75;;;8.00;;
16320;SDS011;8269;50.990;4.494;2023-06-10T11:16:27;12.07;;;8.07;;
16320;SDS011;8269;50.990;4.494;2023-06-10T11:18:54;8.07;;;7.20;;
16320;SDS011;8269;50.990;4.494;2023-06-10T11:21:20;10.25;;;7.20;;
16320;SDS011;8269;50.990;4.494;2023-06-10T11:23:46;8.57;;;7.78;;
16320;SDS011;8269;50.990;4.494;2023-06-10T11:31:29;8.88;;;7.90;;
16320;SDS011;8269;50.990;4.494;2023-06-10T11:33:56;8.90;;;8.00;;
16320;SDS011;8269;50.990;4.494;2023-06-10T11:36:23;9.10;;;7.93;;
16320;SDS011;8269;50.990;4.494;2023-06-10T11:38:49;9.75;;;7.80;;
16320;SDS011;8269;50.990;4.494;2023-06-10T11:41:15;11.25;;;7.80;;
16320;SDS011;8269;50.990;4.494;2023-06-10T11:43:43;11.30;;;7.60;;
16320;SDS011;8269;50.990;4.494;2023-06-10T11:46:13;8.48;;;7.50;;
16320;SDS011;8269;50.990;4.494;2023-06-10T11:48:49;12.13;;;7.55;;
16320;SDS011;8269;50.990;4.494;2023-06-10T11:51:15;10.50;;;8.10;;
16320;SDS011;8269;50.990;4.494;2023-06-10T11:53:45;7.80;;;7.00;;
16320;SDS011;8269;50.990;4.494;2023-06-10T11:56:11;8.30;;;6.93;;
16320;SDS011;8269;50.990;4.494;2023-06-10T11:58:37;10.25;;;7.88;;
16320;SDS011;8269;50.990;4.494;2023-06-10T12:01:05;9.90;;;7.95;;
16320;SDS011;8269;50.990;4.494;2023-06-10T12:03:35;8.77;;;7.38;;
16320;SDS011;8269;50.990;4.494;2023-06-10T12:06:05;14.90;;;7.68;;
16320;SDS011;8269;50.990;4.494;2023-06-10T12:08:32;11.43;;;7.30;;
16320;SDS011;8269;50.990;4.494;2023-06-10T12:10:58;8.10;;;7.30;;
16320;SDS011;8269;50.990;4.494;2023-06-10T12:13:28;7.60;;;6.90;;
16320;SDS011;8269;50.990;4.494;2023-06-10T12:15:54;7.90;;;7.10;;
16320;SDS011;8269;50.990;4.494;2023-06-10T12:18:21;8.60;;;7.65;;
16320;SDS011;8269;50.990;4.494;2023-06-10T12:20:48;8.25;;;7.45;;
16320;SDS011;8269;50.990;4.494;2023-06-10T12:23:15;11.02;;;7.85;;
16320;SDS011;8269;50.990;4.494;2023-06-10T12:25:51;12.45;;;7.93;;
16320;SDS011;8269;50.990;4.494;2023-06-10T12:28:20;9.63;;;7.72;;
16320;SDS011;8269;50.990;4.494;2023-06-10T12:30:46;8.45;;;6.95;;
16320;SDS011;8269;50.990;4.494;2023-06-10T12:33:16;8.02;;;7.15;;
16320;SDS011;8269;50.990;4.494;2023-06-10T12:35:46;8.43;;;7.20;;
16320;SDS011;8269;50.990;4.494;2023-06-10T12:38:13;10.20;;;7.22;;
16320;SDS011;8269;50.990;4.494;2023-06-10T12:40:39;11.10;;;6.97;;
16320;SDS011;8269;50.990;4.494;2023-06-10T12:43:05;9.88;;;7.10;;
16320;SDS011;8269;50.990;4.494;2023-06-10T12:45:32;8.70;;;7.55;;
16320;SDS011;8269;50.990;4.494;2023-06-10T12:50:32;13.07;;;7.22;;
16320;SDS011;8269;50.990;4.494;2023-06-10T12:52:59;10.25;;;7.10;;
16320;SDS011;8269;50.990;4.494;2023-06-10T12:55:26;8.25;;;7.32;;
16320;SDS011;8269;50.990;4.494;2023-06-10T12:57:53;9.23;;;7.00;;
16320;SDS011;8269;50.990;4.494;2023-06-10T13:00:20;8.13;;;7.32;;
16320;SDS011;8269;50.990;4.494;2023-06-10T13:02:48;12.45;;;6.90;;
16320;SDS011;8269;50.990;4.494;2023-06-10T13:05:15;10.25;;;8.02;;
16320;SDS011;8269;50.990;4.494;2023-06-10T13:07:41;8.77;;;6.88;;
16320;SDS011;8269;50.990;4.494;2023-06-10T13:10:07;8.77;;;7.80;;
16320;SDS011;8269;50.990;4.494;2023-06-10T13:12:35;9.10;;;7.03;;
16320;SDS011;8269;50.990;4.494;2023-06-10T13:15:02;8.07;;;6.93;;
16320;SDS011;8269;50.990;4.494;2023-06-10T13:17:28;8.10;;;7.07;;
16320;SDS011;8269;50.990;4.494;2023-06-10T13:19:54;12.38;;;7.38;;
16320;SDS011;8269;50.990;4.494;2023-06-10T13:22:20;7.85;;;6.80;;
16320;SDS011;8269;50.990;4.494;2023-06-10T13:24:48;9.73;;;7.38;;
16320;SDS011;8269;50.990;4.494;2023-06-10T13:27:15;9.57;;;7.47;;
16320;SDS011;8269;50.990;4.494;2023-06-10T13:29:41;9.40;;;6.88;;
16320;SDS011;8269;50.990;4.494;2023-06-10T13:32:07;8.25;;;7.13;;
16320;SDS011;8269;50.990;4.494;2023-06-10T13:34:33;9.38;;;7.07;;
16320;SDS011;8269;50.990;4.494;2023-06-10T13:36:59;11.55;;;7.82;;
16320;SDS011;8269;50.990;4.494;2023-06-10T13:39:25;9.30;;;7.53;;
16320;SDS011;8269;50.990;4.494;2023-06-10T13:41:52;9.98;;;7.32;;
16320;SDS011;8269;50.990;4.494;2023-06-10T13:44:18;11.30;;;7.60;;
16320;SDS011;8269;50.990;4.494;2023-06-10T13:46:44;8.23;;;7.40;;
16320;SDS011;8269;50.990;4.494;2023-06-10T13:49:10;10.85;;;7.50;;
16320;SDS011;8269;50.990;4.494;2023-06-10T13:51:36;8.45;;;7.53;;
16320;SDS011;8269;50.990;4.494;2023-06-10T13:54:03;8.30;;;6.97;;
16320;SDS011;8269;50.990;4.494;2023-06-10T13:56:29;8.13;;;7.10;;
16320;SDS011;8269;50.990;4.494;2023-06-10T13:58:55;8.32;;;7.25;;
16320;SDS011;8269;50.990;4.494;2023-06-10T14:01:21;9.88;;;7.50;;
16320;SDS011;8269;50.990;4.494;2023-06-10T14:03:47;7.82;;;7.03;;
16320;SDS011;8269;50.990;4.494;2023-06-10T14:06:13;7.88;;;7.07;;
16320;SDS011;8269;50.990;4.494;2023-06-10T14:08:43;8.25;;;7.30;;
16320;SDS011;8269;50.990;4.494;2023-06-10T14:11:09;10.50;;;7.55;;
16320;SDS011;8269;50.990;4.494;2023-06-10T14:13:35;9.32;;;7.90;;
16320;SDS011;8269;50.990;4.494;2023-06-10T14:16:03;9.50;;;7.57;;
16320;SDS011;8269;50.990;4.494;2023-06-10T14:18:30;9.60;;;7.35;;
16320;SDS011;8269;50.990;4.494;2023-06-10T14:20:56;9.75;;;7.15;;
16320;SDS011;8269;50.990;4.494;2023-06-10T14:23:22;8.15;;;7.35;;
16320;SDS011;8269;50.990;4.494;2023-06-10T14:25:50;10.05;;;7.18;;
16320;SDS011;8269;50.990;4.494;2023-06-10T14:28:16;9.90;;;7.70;;
16320;SDS011;8269;50.990;4.494;2023-06-10T14:30:42;9.68;;;7.45;;
16320;SDS011;8269;50.990;4.494;2023-06-10T14:33:08;7.95;;;7.13;;
16320;SDS011;8269;50.990;4.494;2023-06-10T14:35:34;7.97;;;7.18;;
16320;SDS011;8269;50.990;4.494;2023-06-10T14:38:00;8.65;;;6.47;;
16320;SDS011;8269;50.990;4.494;2023-06-10T14:40:26;8.75;;;7.78;;
16320;SDS011;8269;50.990;4.494;2023-06-10T14:42:54;9.63;;;7.50;;
16320;SDS011;8269;50.990;4.494;2023-06-10T14:45:20;8.65;;;7.40;;
16320;SDS011;8269;50.990;4.494;2023-06-10T14:47:46;9.23;;;7.63;;
16320;SDS011;8269;50.990;4.494;2023-06-10T14:50:13;8.98;;;7.20;;
16320;SDS011;8269;50.990;4.494;2023-06-10T14:52:39;9.57;;;7.28;;
16320;SDS011;8269;50.990;4.494;2023-06-10T14:55:06;9.02;;;6.95;;
16320;SDS011;8269;50.990;4.494;2023-06-10T14:57:32;10.40;;;7.45;;
16320;SDS011;8269;50.990;4.494;2023-06-10T14:59:58;10.63;;;7.78;;
16320;SDS011;8269;50.990;4.494;2023-06-10T15:02:24;8.30;;;7.38;;
16320;SDS011;8269;50.990;4.494;2023-06-10T15:04:51;8.27;;;7.47;;
16320;SDS011;8269;50.990;4.494;2023-06-10T15:07:17;8.52;;;6.97;;